createdAt,value
2018-08-31T00:02:37.574Z,16.90
2018-08-31T00:05:44.322Z,16.80
2018-08-31T00:10:24.256Z,16.80
2018-08-31T00:12:53.740Z,16.80
2018-08-31T00:15:22.882Z,16.70
2018-08-31T00:17:52.061Z,16.60
2018-08-31T00:20:21.601Z,16.60
2018-08-31T00:22:50.905Z,16.60
2018-08-31T00:26:02.691Z,16.60
2018-08-31T00:29:40.137Z,16.70
2018-08-31T00:32:20.949Z,16.60
2018-08-31T00:35:31.039Z,16.60
2018-08-31T00:39:47.381Z,16.60
2018-08-31T00:42:26.902Z,16.60
2018-08-31T00:45:31.725Z,16.60
2018-08-31T00:48:01.596Z,16.60
2018-08-31T00:50:31.111Z,16.50
2018-08-31T00:53:00.707Z,16.50
2018-08-31T00:55:30.180Z,16.50
2018-08-31T00:57:59.241Z,16.50
2018-08-31T01:00:28.372Z,16.50
2018-08-31T01:02:57.783Z,16.30
2018-08-31T01:05:27.031Z,16.30
2018-08-31T01:07:56.629Z,16.30
2018-08-31T01:10:25.982Z,16.40
2018-08-31T01:12:55.664Z,16.50
2018-08-31T01:15:24.935Z,16.40
2018-08-31T01:17:54.435Z,16.30
2018-08-31T01:20:23.925Z,16.30
2018-08-31T01:22:53.302Z,16.20
2018-08-31T01:25:22.757Z,16.30
2018-08-31T01:27:52.013Z,16.20
2018-08-31T01:30:21.260Z,16.20
2018-08-31T01:32:50.617Z,16.20
2018-08-31T01:35:19.819Z,16.30
2018-08-31T01:37:48.873Z,16.40
2018-08-31T01:40:18.103Z,16.40
2018-08-31T01:42:47.473Z,16.30
2018-08-31T01:45:16.869Z,16.20
2018-08-31T01:47:46.218Z,16.20
2018-08-31T01:50:15.377Z,16.20
2018-08-31T01:52:45.028Z,16.20
2018-08-31T01:55:14.487Z,16.20
2018-08-31T01:57:44.152Z,16.20
2018-08-31T02:00:13.737Z,16.30
2018-08-31T02:02:43.037Z,16.30
2018-08-31T02:05:12.244Z,16.20
2018-08-31T02:07:42.035Z,16.20
2018-08-31T02:10:11.508Z,16.20
2018-08-31T02:12:41.030Z,16.20
2018-08-31T02:15:10.777Z,16.20
2018-08-31T02:17:40.069Z,16.20
2018-08-31T02:20:09.601Z,16.20
2018-08-31T02:22:38.822Z,16.20
2018-08-31T02:25:08.412Z,16.20
2018-08-31T02:27:37.997Z,16.20
2018-08-31T02:30:07.502Z,16.10
2018-08-31T02:32:36.820Z,16.10
2018-08-31T02:35:06.026Z,16.00
2018-08-31T02:37:35.249Z,16.00
2018-08-31T02:40:04.798Z,16.10
2018-08-31T02:42:34.094Z,16.10
2018-08-31T02:45:03.663Z,16.00
2018-08-31T02:47:34.239Z,16.10
2018-08-31T02:50:03.638Z,16.20
2018-08-31T02:52:32.764Z,16.20
2018-08-31T02:55:02.395Z,16.10
2018-08-31T02:57:31.736Z,16.20
2018-08-31T03:00:00.864Z,16.20
2018-08-31T03:02:29.945Z,16.20
2018-08-31T03:04:59.271Z,16.20
2018-08-31T03:07:28.713Z,16.10
2018-08-31T03:09:58.272Z,16.00
2018-08-31T03:12:27.792Z,16.10
2018-08-31T03:14:56.951Z,16.10
2018-08-31T03:17:26.260Z,16.10
2018-08-31T03:19:55.785Z,16.10
2018-08-31T03:22:25.325Z,16.10
2018-08-31T03:24:54.891Z,16.10
2018-08-31T03:27:24.180Z,16.10
2018-08-31T03:29:53.286Z,16.10
2018-08-31T03:32:23.125Z,16.10
2018-08-31T03:34:52.849Z,16.20
2018-08-31T03:37:22.176Z,16.10
2018-08-31T03:39:51.913Z,16.10
2018-08-31T03:42:21.289Z,16.10
2018-08-31T03:44:50.306Z,16.00
2018-08-31T03:47:19.522Z,15.90
2018-08-31T03:49:49.272Z,15.80
2018-08-31T03:52:18.561Z,15.80
2018-08-31T03:54:47.856Z,15.90
2018-08-31T03:57:16.983Z,15.80
2018-08-31T03:59:46.507Z,15.80
2018-08-31T04:02:15.976Z,15.70
2018-08-31T04:04:45.198Z,15.60
2018-08-31T04:07:14.493Z,15.60
2018-08-31T04:09:43.938Z,15.70
2018-08-31T04:12:13.324Z,15.70
2018-08-31T04:14:42.677Z,15.70
2018-08-31T04:17:12.184Z,15.50
2018-08-31T04:19:41.468Z,15.60
2018-08-31T04:22:10.816Z,15.60
2018-08-31T04:24:40.125Z,15.60
2018-08-31T04:27:09.228Z,15.40
2018-08-31T04:29:38.479Z,15.50
2018-08-31T04:32:07.657Z,15.40
2018-08-31T04:34:36.831Z,15.40
2018-08-31T04:37:06.264Z,15.60
2018-08-31T04:39:35.636Z,15.50
2018-08-31T04:42:05.731Z,15.30
2018-08-31T04:44:34.949Z,15.30
2018-08-31T04:47:04.078Z,15.40
2018-08-31T04:49:33.521Z,15.40
2018-08-31T04:52:02.722Z,15.40
2018-08-31T04:54:32.746Z,15.30
2018-08-31T04:57:01.899Z,15.30
2018-08-31T04:59:31.381Z,15.30
2018-08-31T05:02:00.980Z,15.40
2018-08-31T05:04:30.879Z,15.40
2018-08-31T05:07:00.249Z,15.50
2018-08-31T05:09:29.534Z,15.60
2018-08-31T05:11:59.064Z,15.50
2018-08-31T05:14:28.541Z,15.40
2018-08-31T05:16:58.037Z,15.40
2018-08-31T05:19:27.628Z,15.50
2018-08-31T05:21:56.774Z,15.60
2018-08-31T05:24:26.048Z,15.60
2018-08-31T05:26:55.414Z,15.50
2018-08-31T05:29:25.124Z,15.40
2018-08-31T05:31:54.132Z,15.50
2018-08-31T05:34:23.565Z,15.60
2018-08-31T05:36:52.848Z,15.40
2018-08-31T05:39:22.445Z,15.40
2018-08-31T05:41:51.484Z,15.50
2018-08-31T05:44:20.805Z,15.60
2018-08-31T05:46:49.954Z,15.70
2018-08-31T05:49:19.377Z,15.70
2018-08-31T05:51:48.779Z,15.60
2018-08-31T05:54:17.945Z,15.70
2018-08-31T05:56:47.228Z,15.60
2018-08-31T05:59:16.342Z,15.60
2018-08-31T06:01:45.616Z,15.60
2018-08-31T06:04:14.911Z,15.70
2018-08-31T06:06:44.296Z,15.70
2018-08-31T06:09:13.381Z,15.70
2018-08-31T06:11:42.462Z,15.70
2018-08-31T06:14:12.164Z,15.70
2018-08-31T06:16:41.412Z,15.80
2018-08-31T06:19:10.567Z,15.80
2018-08-31T06:21:39.948Z,15.80
2018-08-31T06:24:09.128Z,15.60
2018-08-31T06:26:38.625Z,15.60
2018-08-31T06:29:07.815Z,15.50
2018-08-31T06:31:37.022Z,15.60
2018-08-31T06:34:06.576Z,15.60
2018-08-31T06:36:35.980Z,15.60
2018-08-31T06:39:06.683Z,15.70
2018-08-31T06:41:35.880Z,15.70
2018-08-31T06:44:05.327Z,15.70
2018-08-31T06:46:34.898Z,15.70
2018-08-31T06:49:04.499Z,15.80
2018-08-31T06:51:34.804Z,15.80
2018-08-31T06:54:04.121Z,16.00
2018-08-31T06:56:33.280Z,16.10
2018-08-31T06:59:02.607Z,16.20
2018-08-31T07:01:31.932Z,16.20
2018-08-31T07:04:01.407Z,16.10
2018-08-31T07:06:30.703Z,16.20
2018-08-31T07:09:00.332Z,16.30
2018-08-31T07:11:29.837Z,16.30
2018-08-31T07:13:59.159Z,16.40
2018-08-31T07:16:28.695Z,16.40
2018-08-31T07:18:59.145Z,16.30
2018-08-31T07:21:28.517Z,16.40
2018-08-31T07:23:57.798Z,16.40
2018-08-31T07:26:27.865Z,16.20
2018-08-31T07:28:57.293Z,16.40
2018-08-31T07:31:26.961Z,16.50
2018-08-31T07:33:56.407Z,16.60
2018-08-31T07:36:25.751Z,16.50
2018-08-31T07:38:55.111Z,16.70
2018-08-31T07:41:24.545Z,16.50
2018-08-31T07:43:55.081Z,16.50
2018-08-31T07:46:24.689Z,16.50
2018-08-31T07:48:53.893Z,16.60
2018-08-31T07:51:24.319Z,16.50
2018-08-31T07:53:53.758Z,16.60
2018-08-31T07:56:23.893Z,16.50
2018-08-31T07:58:53.333Z,16.40
2018-08-31T08:01:22.828Z,16.50
2018-08-31T08:03:54.912Z,16.20
2018-08-31T08:06:24.776Z,16.20
2018-08-31T08:08:53.996Z,16.30
2018-08-31T08:11:23.283Z,16.40
2018-08-31T08:13:53.412Z,16.40
2018-08-31T08:16:22.908Z,16.60
2018-08-31T08:18:52.048Z,16.60
2018-08-31T08:21:21.338Z,16.50
2018-08-31T08:23:50.473Z,16.60
2018-08-31T08:26:19.877Z,16.70
2018-08-31T08:28:49.048Z,16.60
2018-08-31T08:31:18.522Z,16.70
2018-08-31T08:33:47.966Z,16.70
2018-08-31T08:36:17.597Z,16.70
2018-08-31T08:38:46.801Z,16.70
2018-08-31T08:41:16.088Z,16.70
2018-08-31T08:43:45.656Z,16.50
2018-08-31T08:46:15.397Z,16.70
2018-08-31T08:48:45.362Z,16.80
2018-08-31T08:51:16.539Z,16.90
2018-08-31T08:53:45.999Z,16.90
2018-08-31T08:56:15.312Z,17.10
2018-08-31T08:58:45.057Z,17.10
2018-08-31T09:01:14.542Z,16.80
2018-08-31T09:03:44.136Z,17.00
2018-08-31T09:06:13.391Z,17.20
2018-08-31T09:08:42.794Z,17.30
2018-08-31T09:11:12.265Z,17.10
2018-08-31T09:13:41.750Z,17.20
2018-08-31T09:16:10.846Z,17.40
2018-08-31T09:18:40.445Z,17.40
2018-08-31T09:21:09.497Z,17.20
2018-08-31T09:23:38.876Z,17.10
2018-08-31T09:26:11.061Z,17.00
2018-08-31T09:28:40.702Z,17.00
2018-08-31T09:31:17.650Z,17.20
2018-08-31T09:33:46.954Z,17.20
2018-08-31T09:36:16.351Z,17.20
2018-08-31T09:38:46.144Z,17.30
2018-08-31T09:41:15.521Z,17.30
2018-08-31T09:43:45.040Z,17.20
2018-08-31T09:46:14.991Z,17.30
2018-08-31T09:48:44.058Z,17.30
2018-08-31T09:51:13.692Z,17.20
2018-08-31T09:53:43.486Z,17.30
2018-08-31T09:56:12.884Z,17.40
2018-08-31T09:58:42.478Z,17.50
2018-08-31T10:01:16.981Z,17.60
2018-08-31T10:03:46.799Z,17.80
2018-08-31T10:06:16.076Z,17.90
2018-08-31T10:08:46.550Z,17.90
2018-08-31T10:11:15.500Z,17.90
2018-08-31T10:13:44.779Z,18.10
2018-08-31T10:16:14.536Z,17.70
2018-08-31T10:18:43.799Z,17.80
2018-08-31T10:21:13.275Z,17.80
2018-08-31T10:23:43.397Z,17.90
2018-08-31T10:26:12.909Z,18.10
2018-08-31T10:28:42.525Z,17.90
2018-08-31T10:31:11.752Z,17.80
2018-08-31T10:33:41.019Z,17.80
2018-08-31T10:36:10.839Z,17.80
2018-08-31T10:38:40.534Z,17.70
2018-08-31T10:41:09.861Z,17.90
2018-08-31T10:43:39.239Z,18.00
2018-08-31T10:46:08.548Z,18.00
2018-08-31T10:48:38.420Z,18.10
2018-08-31T10:51:09.551Z,18.30
2018-08-31T10:53:38.888Z,18.30
2018-08-31T10:56:08.485Z,18.30
2018-08-31T10:58:37.984Z,18.50
2018-08-31T11:01:07.208Z,18.50
2018-08-31T11:03:36.866Z,18.30
2018-08-31T11:06:06.044Z,18.30
2018-08-31T11:08:35.263Z,18.20
2018-08-31T11:11:04.768Z,18.30
2018-08-31T11:13:34.083Z,18.20
2018-08-31T11:16:03.219Z,18.30
2018-08-31T11:18:32.353Z,18.30
2018-08-31T11:21:02.001Z,18.30
2018-08-31T11:23:31.359Z,18.40
2018-08-31T11:26:00.417Z,18.30
2018-08-31T11:28:29.702Z,18.30
2018-08-31T11:30:59.031Z,18.30
2018-08-31T11:33:28.300Z,18.10
2018-08-31T11:35:57.509Z,18.20
2018-08-31T11:38:27.045Z,18.20
2018-08-31T11:40:56.556Z,18.20
2018-08-31T11:43:26.043Z,18.30
2018-08-31T11:45:55.148Z,18.50
2018-08-31T11:48:24.557Z,18.50
2018-08-31T11:50:53.809Z,18.60
2018-08-31T11:53:22.971Z,18.70
2018-08-31T11:55:52.399Z,18.70
2018-08-31T11:58:21.955Z,18.60
2018-08-31T12:00:51.254Z,18.50
2018-08-31T12:03:20.744Z,18.50
2018-08-31T12:05:50.965Z,18.60
2018-08-31T12:08:20.503Z,18.60
2018-08-31T12:10:50.105Z,18.70
2018-08-31T12:13:22.015Z,18.70
2018-08-31T12:15:51.180Z,18.80
2018-08-31T12:18:25.456Z,18.40
2018-08-31T12:20:58.026Z,18.50
2018-08-31T12:23:26.997Z,18.60
2018-08-31T12:25:56.696Z,18.50
2018-08-31T12:28:26.006Z,18.40
2018-08-31T12:30:55.288Z,18.30
2018-08-31T12:33:25.512Z,18.40
2018-08-31T12:35:54.862Z,18.50
2018-08-31T12:38:24.171Z,18.30
2018-08-31T12:40:54.250Z,18.30
2018-08-31T12:43:23.560Z,18.10
2018-08-31T12:45:53.091Z,18.10
2018-08-31T12:48:22.838Z,18.20
2018-08-31T12:50:52.480Z,18.20
2018-08-31T12:53:21.974Z,18.20
2018-08-31T12:55:51.313Z,18.30
2018-08-31T12:58:20.891Z,18.30
2018-08-31T13:00:50.116Z,18.30
2018-08-31T13:03:20.093Z,18.30
2018-08-31T13:05:49.441Z,18.40
2018-08-31T13:08:18.804Z,18.60
2018-08-31T13:10:48.100Z,18.70
2018-08-31T13:13:17.477Z,18.70
2018-08-31T13:15:47.911Z,18.90
2018-08-31T13:18:17.426Z,19.00
2018-08-31T13:20:46.795Z,18.90
2018-08-31T13:23:16.785Z,18.90
2018-08-31T13:25:47.058Z,19.20
2018-08-31T13:28:16.304Z,19.40
2018-08-31T13:30:45.883Z,19.60
2018-08-31T13:33:15.223Z,19.90
2018-08-31T13:35:44.424Z,20.30
2018-08-31T13:38:13.486Z,21.10
2018-08-31T13:40:42.911Z,21.00
2018-08-31T13:43:12.146Z,21.20
2018-08-31T13:45:41.508Z,21.30
2018-08-31T13:48:10.900Z,20.90
2018-08-31T13:50:40.640Z,21.00
2018-08-31T13:53:09.816Z,20.60
2018-08-31T13:55:40.221Z,20.20
2018-08-31T13:58:11.620Z,20.20
2018-08-31T14:00:42.376Z,19.90
2018-08-31T14:03:12.064Z,19.90
2018-08-31T14:05:41.662Z,19.90
2018-08-31T14:08:11.357Z,19.70
2018-08-31T14:10:40.798Z,19.50
2018-08-31T14:13:09.933Z,19.30
2018-08-31T14:15:39.321Z,19.10
2018-08-31T14:18:09.022Z,19.20
2018-08-31T14:20:38.620Z,19.20
2018-08-31T14:23:07.781Z,19.20
2018-08-31T14:25:37.395Z,19.10
2018-08-31T14:28:06.668Z,19.10
2018-08-31T14:30:36.067Z,19.10
2018-08-31T14:33:05.745Z,19.20
2018-08-31T14:35:36.144Z,19.20
2018-08-31T14:38:05.543Z,19.20
2018-08-31T14:40:37.790Z,19.10
2018-08-31T14:43:07.177Z,19.10
2018-08-31T14:45:38.802Z,19.00
2018-08-31T14:48:09.262Z,19.00
2018-08-31T14:50:42.243Z,19.10
2018-08-31T14:53:11.403Z,19.00
2018-08-31T14:55:41.239Z,19.10
2018-08-31T14:58:11.188Z,19.10
2018-08-31T15:00:40.395Z,19.30
2018-08-31T15:03:09.943Z,19.30
2018-08-31T15:05:39.281Z,19.20
2018-08-31T15:08:08.388Z,19.50
2018-08-31T15:10:41.340Z,19.70
2018-08-31T15:13:19.117Z,19.80
2018-08-31T15:15:48.486Z,19.70
2018-08-31T15:18:17.658Z,19.70
2018-08-31T15:20:47.049Z,19.60
2018-08-31T15:23:16.704Z,19.70
2018-08-31T15:25:46.085Z,19.50
2018-08-31T15:28:15.264Z,19.50
2018-08-31T15:30:45.693Z,19.50
2018-08-31T15:33:14.912Z,19.40
2018-08-31T15:35:44.498Z,19.40
2018-08-31T15:38:13.743Z,19.30
2018-08-31T15:40:43.347Z,19.40
2018-08-31T15:43:12.750Z,19.50
2018-08-31T15:45:42.203Z,19.30
2018-08-31T15:48:11.302Z,19.00
2018-08-31T15:50:40.837Z,18.90
2018-08-31T15:53:10.213Z,19.00
2018-08-31T15:55:40.339Z,19.00
2018-08-31T15:58:10.072Z,18.90
2018-08-31T16:00:39.349Z,18.80
2018-08-31T16:03:08.827Z,18.60
2018-08-31T16:05:39.390Z,18.70
2018-08-31T16:08:08.881Z,18.50
2018-08-31T16:10:38.312Z,18.50
2018-08-31T16:13:07.727Z,18.40
2018-08-31T16:15:37.831Z,18.40
2018-08-31T16:18:07.212Z,18.30
2018-08-31T16:20:41.029Z,18.30
2018-08-31T16:23:15.677Z,18.20
2018-08-31T16:25:45.067Z,18.10
2018-08-31T16:28:15.353Z,17.90
2018-08-31T16:30:46.805Z,17.90
2018-08-31T16:33:17.435Z,17.80
2018-08-31T16:35:46.590Z,17.70
2018-08-31T16:38:15.748Z,17.70
2018-08-31T16:40:45.860Z,17.60
2018-08-31T16:43:14.944Z,17.40
2018-08-31T16:45:44.038Z,17.20
2018-08-31T16:48:14.874Z,17.20
2018-08-31T16:50:46.466Z,17.00
2018-08-31T16:53:17.361Z,16.90
2018-08-31T16:55:47.116Z,16.70
2018-08-31T16:58:16.467Z,16.70
2018-08-31T17:00:46.392Z,16.60
2018-08-31T17:03:16.226Z,16.50
2018-08-31T17:05:49.079Z,16.30
2018-08-31T17:08:18.673Z,16.30
2018-08-31T17:10:49.701Z,16.20
2018-08-31T17:13:19.482Z,16.20
2018-08-31T17:15:49.561Z,16.00
2018-08-31T17:18:19.638Z,15.80
2018-08-31T17:20:54.658Z,15.80
2018-08-31T17:23:24.565Z,15.90
2018-08-31T17:25:54.644Z,15.80
2018-08-31T17:28:36.951Z,15.90
2018-08-31T17:31:11.828Z,15.90
2018-08-31T17:33:46.293Z,15.90
2018-08-31T17:36:21.710Z,16.00
2018-08-31T17:38:52.660Z,16.10
2018-08-31T17:41:22.300Z,15.90
2018-08-31T17:43:51.532Z,15.90
2018-08-31T17:46:21.032Z,15.90
2018-08-31T17:48:50.396Z,16.00
2018-08-31T17:51:19.764Z,16.00
2018-08-31T17:53:50.369Z,16.10
2018-08-31T17:56:19.969Z,16.10
2018-08-31T17:58:49.698Z,16.00
2018-08-31T18:01:19.070Z,16.00
2018-08-31T18:03:48.625Z,16.00
2018-08-31T18:06:17.962Z,15.90
2018-08-31T18:08:47.545Z,15.80
2018-08-31T18:11:17.218Z,15.80
2018-08-31T18:13:46.466Z,15.80
2018-08-31T18:16:16.137Z,15.80
2018-08-31T18:18:45.696Z,15.80
2018-08-31T18:21:15.001Z,15.80
2018-08-31T18:23:44.394Z,15.70
2018-08-31T18:26:13.799Z,15.70
2018-08-31T18:28:42.528Z,15.60
2018-08-31T18:31:11.774Z,15.50
2018-08-31T18:33:41.067Z,15.50
2018-08-31T18:36:10.660Z,15.30
2018-08-31T18:38:40.370Z,15.40
2018-08-31T18:41:09.953Z,15.40
2018-08-31T18:43:39.104Z,15.40
2018-08-31T18:46:08.673Z,15.40
2018-08-31T18:48:38.091Z,15.40
2018-08-31T18:51:07.551Z,15.40
2018-08-31T18:53:37.312Z,15.40
2018-08-31T18:56:06.853Z,15.30
2018-08-31T18:58:36.165Z,15.20
2018-08-31T19:01:06.054Z,15.00
2018-08-31T19:03:35.488Z,14.90
2018-08-31T19:06:04.661Z,15.00
2018-08-31T19:08:34.336Z,15.00
2018-08-31T19:11:04.003Z,14.80
2018-08-31T19:13:33.628Z,14.70
2018-08-31T19:16:03.099Z,14.70
2018-08-31T19:18:32.246Z,14.60
2018-08-31T19:21:01.677Z,14.60
2018-08-31T19:23:31.224Z,14.60
2018-08-31T19:26:00.651Z,14.60
2018-08-31T19:28:30.467Z,14.60
2018-08-31T19:30:59.934Z,14.50
2018-08-31T19:33:29.242Z,14.60
2018-08-31T19:35:58.485Z,14.50
2018-08-31T19:38:28.870Z,14.50
2018-08-31T19:40:58.224Z,14.40
2018-08-31T19:43:28.631Z,14.30
2018-08-31T19:45:57.878Z,14.30
2018-08-31T19:48:27.907Z,14.30
2018-08-31T19:50:57.653Z,14.30
2018-08-31T19:53:27.161Z,14.20
2018-08-31T19:55:56.479Z,14.20
2018-08-31T19:58:26.123Z,14.20
2018-08-31T20:00:55.669Z,14.20
2018-08-31T20:03:25.636Z,14.10
2018-08-31T20:05:55.139Z,14.10
2018-08-31T20:08:25.121Z,14.00
2018-08-31T20:10:54.604Z,14.00
2018-08-31T20:13:23.931Z,13.90
2018-08-31T20:15:53.174Z,13.70
2018-08-31T20:18:22.876Z,13.60
2018-08-31T20:20:52.533Z,13.70
2018-08-31T20:23:21.980Z,13.70
2018-08-31T20:25:51.060Z,13.60
2018-08-31T20:28:20.553Z,13.50
2018-08-31T20:30:50.191Z,13.60
2018-08-31T20:33:21.129Z,13.60
2018-08-31T20:35:50.497Z,13.60
2018-08-31T20:38:21.556Z,13.60
2018-08-31T20:40:53.389Z,13.60
2018-08-31T20:43:24.401Z,13.60
2018-08-31T20:48:46.533Z,13.60
2018-08-31T20:51:17.570Z,13.50
2018-08-31T20:53:49.213Z,13.40
2018-08-31T20:56:28.342Z,13.30
2018-08-31T20:58:58.747Z,13.30
2018-08-31T21:01:28.327Z,13.30
2018-08-31T21:03:58.313Z,13.20
2018-08-31T21:06:27.822Z,13.20
2018-08-31T21:08:58.448Z,13.30
2018-08-31T21:11:27.958Z,13.30
2018-08-31T21:13:57.172Z,13.20
2018-08-31T21:16:26.325Z,13.20
2018-08-31T21:18:55.816Z,13.20
2018-08-31T21:21:26.886Z,13.20
2018-08-31T21:23:56.274Z,13.10
2018-08-31T21:26:25.401Z,13.10
2018-08-31T21:28:59.417Z,13.00
2018-08-31T21:31:29.078Z,12.90
2018-08-31T21:33:58.420Z,13.00
2018-08-31T21:36:27.715Z,13.10
2018-08-31T21:38:57.513Z,13.20
2018-08-31T21:41:27.198Z,13.10
2018-08-31T21:43:56.629Z,13.00
2018-08-31T21:46:26.314Z,12.80
2018-08-31T21:48:55.709Z,12.90
2018-08-31T21:51:25.499Z,12.90
2018-08-31T21:53:54.910Z,12.90
2018-08-31T21:56:24.260Z,12.90
2018-08-31T21:58:53.647Z,13.00
2018-08-31T22:01:28.223Z,13.00
2018-08-31T22:03:57.953Z,13.00
2018-08-31T22:06:27.253Z,12.90
2018-08-31T22:08:56.805Z,12.90
2018-08-31T22:11:26.017Z,12.90
2018-08-31T22:13:56.064Z,12.80
2018-08-31T22:16:25.290Z,12.90
2018-08-31T22:18:54.540Z,12.90
2018-08-31T22:21:23.708Z,12.70
2018-08-31T22:23:53.107Z,12.70
2018-08-31T22:26:22.476Z,12.60
2018-08-31T22:28:51.934Z,12.60
2018-08-31T22:31:21.329Z,12.60
2018-08-31T22:33:50.532Z,12.60
2018-08-31T22:36:19.720Z,12.60
2018-08-31T22:38:49.840Z,12.60
2018-08-31T22:41:19.324Z,12.60
2018-08-31T22:43:51.669Z,12.40
2018-08-31T22:46:22.951Z,12.30
2018-08-31T22:48:52.568Z,12.40
2018-08-31T22:51:22.265Z,12.30
2018-08-31T22:53:51.989Z,12.30
2018-08-31T22:56:21.379Z,12.20
2018-08-31T22:58:50.750Z,12.20
2018-08-31T23:01:21.540Z,12.20
2018-08-31T23:03:50.926Z,12.20
2018-08-31T23:06:20.648Z,12.30
2018-08-31T23:08:49.936Z,12.30
2018-08-31T23:11:19.628Z,12.30
2018-08-31T23:13:48.927Z,12.30
2018-08-31T23:16:18.099Z,12.30
2018-08-31T23:18:47.541Z,12.10
2018-08-31T23:21:16.964Z,12.10
2018-08-31T23:23:48.470Z,12.10
2018-08-31T23:26:18.322Z,12.20
2018-08-31T23:28:48.120Z,12.30
2018-08-31T23:31:17.257Z,12.30
2018-08-31T23:33:46.642Z,12.20
2018-08-31T23:36:16.107Z,11.90
2018-08-31T23:38:45.638Z,12.10
2018-08-31T23:41:15.329Z,12.10
2018-08-31T23:43:45.363Z,12.10
2018-08-31T23:46:14.566Z,11.90
2018-08-31T23:48:43.868Z,12.00
2018-08-31T23:51:12.982Z,12.10
2018-08-31T23:53:42.241Z,12.10
2018-08-31T23:56:11.482Z,12.10
2018-08-31T23:58:40.993Z,12.20
